Аэропорт: Братск. Братск

ICAO: UIBB

METAR:
2019/01/21 23:00
UIBB 212300Z 06001MPS 0100 R30/0300N FZFG BKN000 M15/M16 Q1019 R30/390134 NOSIG RMK QBB010 QFE721/0961
METAR:
2019/01/21 21:21
TAF UIBB 212000Z 2121/2221 09003MPS 0300 FZFG BKN001 
      TEMPO 2121/2204 3100 -SHSN BR BKN016CB 
     FM220400 15005MPS 3100 -SHSN BKN016CB